sensor_id;sensor_type;location;lat;lon;timestamp;pressure;altitude;pressure_sealevel;temperature;humidity
31775;BME280;66189;49.000;11.640;2023-02-17T00:01:56;96787.75;;;1.79;87.49
31775;BME280;66189;49.000;11.640;2023-02-17T00:03:57;96796.09;;;1.67;86.88
31775;BME280;66189;49.000;11.640;2023-02-17T00:05:57;96791.44;;;1.54;85.77
31775;BME280;66189;49.000;11.640;2023-02-17T00:07:58;96787.88;;;1.64;86.96
31775;BME280;66189;49.000;11.640;2023-02-17T00:09:58;96783.28;;;1.74;87.57
31775;BME280;66189;49.000;11.640;2023-02-17T00:11:59;96776.56;;;1.82;87.95
31775;BME280;66189;49.000;11.640;2023-02-17T00:13:59;96775.50;;;1.83;87.83
31775;BME280;66189;49.000;11.640;2023-02-17T00:16:06;96775.50;;;1.83;87.52
31775;BME280;66189;49.000;11.640;2023-02-17T00:18:06;96775.28;;;1.80;87.48
31775;BME280;66189;49.000;11.640;2023-02-17T00:20:07;96779.28;;;1.77;86.96
31775;BME280;66189;49.000;11.640;2023-02-17T00:22:07;96767.97;;;1.95;87.28
31775;BME280;66189;49.000;11.640;2023-02-17T00:24:08;96772.13;;;1.77;86.82
31775;BME280;66189;49.000;11.640;2023-02-17T00:26:09;96774.75;;;1.77;87.25
31775;BME280;66189;49.000;11.640;2023-02-17T00:28:09;96776.16;;;1.70;86.26
31775;BME280;66189;49.000;11.640;2023-02-17T00:30:10;96773.56;;;1.65;85.81
31775;BME280;66189;49.000;11.640;2023-02-17T00:32:10;96769.50;;;1.72;86.54
31775;BME280;66189;49.000;11.640;2023-02-17T00:34:11;96773.41;;;1.80;86.78
31775;BME280;66189;49.000;11.640;2023-02-17T00:36:14;96772.06;;;1.83;87.19
31775;BME280;66189;49.000;11.640;2023-02-17T00:38:16;96770.50;;;2.06;87.78
31775;BME280;66189;49.000;11.640;2023-02-17T00:40:17;96766.69;;;1.93;87.03
31775;BME280;66189;49.000;11.640;2023-02-17T00:42:17;96778.44;;;1.82;86.73
31775;BME280;66189;49.000;11.640;2023-02-17T00:44:19;96772.00;;;1.93;87.14
31775;BME280;66189;49.000;11.640;2023-02-17T00:46:20;96766.13;;;1.96;87.15
31775;BME280;66189;49.000;11.640;2023-02-17T00:48:20;96776.47;;;1.92;87.07
31775;BME280;66189;49.000;11.640;2023-02-17T00:50:21;96773.13;;;1.82;86.43
31775;BME280;66189;49.000;11.640;2023-02-17T00:52:22;96771.25;;;1.87;86.89
31775;BME280;66189;49.000;11.640;2023-02-17T00:54:22;96771.00;;;1.84;86.40
31775;BME280;66189;49.000;11.640;2023-02-17T00:56:22;96775.75;;;1.87;86.55
31775;BME280;66189;49.000;11.640;2023-02-17T00:58:23;96773.75;;;1.73;85.38
31775;BME280;66189;49.000;11.640;2023-02-17T01:00:23;96782.28;;;1.70;85.85
31775;BME280;66189;49.000;11.640;2023-02-17T01:02:24;96780.47;;;1.66;86.05
31775;BME280;66189;49.000;11.640;2023-02-17T01:04:26;96782.22;;;1.75;86.37
31775;BME280;66189;49.000;11.640;2023-02-17T01:06:29;96784.41;;;1.68;86.26
31775;BME280;66189;49.000;11.640;2023-02-17T01:08:30;96784.38;;;1.73;86.74
31775;BME280;66189;49.000;11.640;2023-02-17T01:10:31;96779.56;;;1.75;86.97
31775;BME280;66189;49.000;11.640;2023-02-17T01:12:31;96771.81;;;1.79;87.25
31775;BME280;66189;49.000;11.640;2023-02-17T01:14:32;96771.75;;;1.89;87.21
31775;BME280;66189;49.000;11.640;2023-02-17T01:16:44;96764.88;;;1.88;86.91
31775;BME280;66189;49.000;11.640;2023-02-17T01:18:45;96765.59;;;1.94;86.93
31775;BME280;66189;49.000;11.640;2023-02-17T01:20:45;96763.97;;;1.98;87.15
31775;BME280;66189;49.000;11.640;2023-02-17T01:22:46;96763.69;;;2.00;86.83
31775;BME280;66189;49.000;11.640;2023-02-17T01:24:46;96758.88;;;2.02;86.80
31775;BME280;66189;49.000;11.640;2023-02-17T01:26:47;96755.72;;;2.00;86.57
31775;BME280;66189;49.000;11.640;2023-02-17T01:28:48;96749.44;;;1.90;85.98
31775;BME280;66189;49.000;11.640;2023-02-17T01:30:48;96755.03;;;1.89;85.84
31775;BME280;66189;49.000;11.640;2023-02-17T01:32:49;96756.84;;;1.93;85.81
31775;BME280;66189;49.000;11.640;2023-02-17T01:34:49;96751.13;;;1.81;85.17
31775;BME280;66189;49.000;11.640;2023-02-17T01:36:50;96755.59;;;1.86;85.93
31775;BME280;66189;49.000;11.640;2023-02-17T01:38:50;96753.78;;;1.81;85.47
31775;BME280;66189;49.000;11.640;2023-02-17T01:40:51;96748.34;;;1.67;85.05
31775;BME280;66189;49.000;11.640;2023-02-17T01:42:54;96752.63;;;1.63;85.42
31775;BME280;66189;49.000;11.640;2023-02-17T01:45:28;96761.16;;;1.60;85.49
31775;BME280;66189;49.000;11.640;2023-02-17T01:47:30;96750.84;;;1.53;85.95
31775;BME280;66189;49.000;11.640;2023-02-17T01:49:40;96752.28;;;1.40;86.32
31775;BME280;66189;49.000;11.640;2023-02-17T01:51:41;96746.47;;;1.38;86.85
31775;BME280;66189;49.000;11.640;2023-02-17T01:53:46;96747.53;;;1.37;86.70
31775;BME280;66189;49.000;11.640;2023-02-17T01:55:48;96751.78;;;1.38;86.83
31775;BME280;66189;49.000;11.640;2023-02-17T01:57:50;96749.69;;;1.35;87.09
31775;BME280;66189;49.000;11.640;2023-02-17T01:59:53;96739.94;;;1.26;86.83
31775;BME280;66189;49.000;11.640;2023-02-17T02:01:57;96745.78;;;1.28;87.27
31775;BME280;66189;49.000;11.640;2023-02-17T02:04:02;96745.25;;;1.26;87.41
31775;BME280;66189;49.000;11.640;2023-02-17T02:06:13;96736.78;;;1.23;87.42
31775;BME280;66189;49.000;11.640;2023-02-17T02:08:15;96730.16;;;1.26;88.27
31775;BME280;66189;49.000;11.640;2023-02-17T02:10:17;96735.97;;;1.28;88.16
31775;BME280;66189;49.000;11.640;2023-02-17T02:12:20;96727.41;;;1.36;88.17
31775;BME280;66189;49.000;11.640;2023-02-17T02:14:21;96726.25;;;1.48;88.41
31775;BME280;66189;49.000;11.640;2023-02-17T02:16:38;96720.88;;;1.58;88.31
31775;BME280;66189;49.000;11.640;2023-02-17T02:28:08;96699.59;;;1.87;87.89
31775;BME280;66189;49.000;11.640;2023-02-17T02:32:48;96688.53;;;2.04;87.30
31775;BME280;66189;49.000;11.640;2023-02-17T02:39:11;96681.69;;;2.41;85.82
31775;BME280;66189;49.000;11.640;2023-02-17T02:41:33;96686.56;;;2.53;85.58
31775;BME280;66189;49.000;11.640;2023-02-17T02:43:36;96688.59;;;2.61;85.37
31775;BME280;66189;49.000;11.640;2023-02-17T02:45:37;96686.22;;;2.79;84.25
31775;BME280;66189;49.000;11.640;2023-02-17T02:49:38;96683.75;;;3.01;83.30
31775;BME280;66189;49.000;11.640;2023-02-17T03:01:03;96666.41;;;3.37;81.15
31775;BME280;66189;49.000;11.640;2023-02-17T03:03:21;96664.97;;;3.45;80.91
31775;BME280;66189;49.000;11.640;2023-02-17T03:05:31;96671.06;;;3.45;80.77
31775;BME280;66189;49.000;11.640;2023-02-17T03:07:47;96669.31;;;3.54;80.12
31775;BME280;66189;49.000;11.640;2023-02-17T03:09:53;96673.84;;;3.54;80.34
31775;BME280;66189;49.000;11.640;2023-02-17T03:11:56;96674.72;;;3.63;79.89
31775;BME280;66189;49.000;11.640;2023-02-17T03:14:10;96666.81;;;3.58;79.76
31775;BME280;66189;49.000;11.640;2023-02-17T03:16:12;96664.69;;;3.60;79.63
31775;BME280;66189;49.000;11.640;2023-02-17T03:18:14;96675.63;;;3.72;78.90
31775;BME280;66189;49.000;11.640;2023-02-17T03:20:14;96672.75;;;3.69;79.29
31775;BME280;66189;49.000;11.640;2023-02-17T03:22:36;96666.16;;;3.80;78.29
31775;BME280;66189;49.000;11.640;2023-02-17T03:24:37;96671.69;;;3.84;78.36
31775;BME280;66189;49.000;11.640;2023-02-17T03:26:40;96669.81;;;3.84;78.36
31775;BME280;66189;49.000;11.640;2023-02-17T03:28:42;96662.03;;;3.88;77.83
31775;BME280;66189;49.000;11.640;2023-02-17T03:30:42;96666.75;;;3.91;77.87
31775;BME280;66189;49.000;11.640;2023-02-17T03:32:43;96658.56;;;4.01;77.31
31775;BME280;66189;49.000;11.640;2023-02-17T03:34:43;96658.06;;;3.99;77.62
31775;BME280;66189;49.000;11.640;2023-02-17T03:36:44;96652.94;;;4.03;77.08
31775;BME280;66189;49.000;11.640;2023-02-17T03:38:44;96649.78;;;4.01;77.54
31775;BME280;66189;49.000;11.640;2023-02-17T03:40:44;96659.75;;;4.09;77.02
31775;BME280;66189;49.000;11.640;2023-02-17T03:42:45;96657.88;;;4.09;76.95
31775;BME280;66189;49.000;11.640;2023-02-17T03:44:45;96662.22;;;4.19;76.19
31775;BME280;66189;49.000;11.640;2023-02-17T03:46:46;96660.31;;;4.20;76.47
31775;BME280;66189;49.000;11.640;2023-02-17T03:48:46;96660.16;;;4.16;76.52
31775;BME280;66189;49.000;11.640;2023-02-17T03:50:46;96663.59;;;4.17;76.53
31775;BME280;66189;49.000;11.640;2023-02-17T03:52:47;96663.00;;;4.20;76.44
31775;BME280;66189;49.000;11.640;2023-02-17T03:54:47;96663.59;;;4.17;76.62
31775;BME280;66189;49.000;11.640;2023-02-17T03:56:48;96668.88;;;4.31;75.94
31775;BME280;66189;49.000;11.640;2023-02-17T03:58:48;96660.91;;;4.31;75.94
31775;BME280;66189;49.000;11.640;2023-02-17T04:00:49;96664.72;;;4.38;75.73
31775;BME280;66189;49.000;11.640;2023-02-17T04:02:49;96656.81;;;4.47;75.09
31775;BME280;66189;49.000;11.640;2023-02-17T04:04:49;96663.34;;;4.41;75.53
31775;BME280;66189;49.000;11.640;2023-02-17T04:06:50;96665.59;;;4.48;75.33
31775;BME280;66189;49.000;11.640;2023-02-17T04:08:50;96659.38;;;4.52;74.84
31775;BME280;66189;49.000;11.640;2023-02-17T04:10:52;96660.03;;;4.58;74.02
31775;BME280;66189;49.000;11.640;2023-02-17T04:12:53;96656.78;;;4.61;74.33
31775;BME280;66189;49.000;11.640;2023-02-17T04:14:53;96659.34;;;4.66;73.91
31775;BME280;66189;49.000;11.640;2023-02-17T04:16:54;96665.16;;;4.68;73.97
31775;BME280;66189;49.000;11.640;2023-02-17T04:18:54;96666.00;;;4.77;73.51
31775;BME280;66189;49.000;11.640;2023-02-17T04:20:55;96665.72;;;4.79;73.24
31775;BME280;66189;49.000;11.640;2023-02-17T04:22:55;96661.97;;;4.80;73.13
31775;BME280;66189;49.000;11.640;2023-02-17T04:24:55;96677.81;;;4.85;72.56
31775;BME280;66189;49.000;11.640;2023-02-17T04:26:56;96663.66;;;4.76;73.48
31775;BME280;66189;49.000;11.640;2023-02-17T04:28:56;96667.16;;;4.85;72.62
31775;BME280;66189;49.000;11.640;2023-02-17T04:30:58;96670.88;;;4.98;71.72
31775;BME280;66189;49.000;11.640;2023-02-17T04:32:58;96670.28;;;5.01;72.21
31775;BME280;66189;49.000;11.640;2023-02-17T04:34:59;96670.13;;;5.06;71.48
31775;BME280;66189;49.000;11.640;2023-02-17T04:36:59;96660.75;;;5.09;71.82
31775;BME280;66189;49.000;11.640;2023-02-17T04:38:59;96656.72;;;5.20;70.77
31775;BME280;66189;49.000;11.640;2023-02-17T04:41:00;96659.41;;;5.20;71.30
31775;BME280;66189;49.000;11.640;2023-02-17T04:43:01;96651.56;;;5.24;70.93
31775;BME280;66189;49.000;11.640;2023-02-17T04:45:02;96655.66;;;5.21;71.05
31775;BME280;66189;49.000;11.640;2023-02-17T04:47:03;96659.56;;;5.24;71.26
31775;BME280;66189;49.000;11.640;2023-02-17T04:49:03;96654.13;;;5.29;71.16
31775;BME280;66189;49.000;11.640;2023-02-17T04:51:04;96645.81;;;5.30;71.02
31775;BME280;66189;49.000;11.640;2023-02-17T04:53:05;96647.34;;;5.23;71.70
31775;BME280;66189;49.000;11.640;2023-02-17T04:55:05;96653.28;;;5.20;71.85
31775;BME280;66189;49.000;11.640;2023-02-17T04:57:06;96655.81;;;5.25;71.16
31775;BME280;66189;49.000;11.640;2023-02-17T04:59:06;96646.53;;;5.22;71.23
31775;BME280;66189;49.000;11.640;2023-02-17T05:01:06;96651.41;;;5.20;71.35
31775;BME280;66189;49.000;11.640;2023-02-17T05:03:07;96647.66;;;5.21;71.26
31775;BME280;66189;49.000;11.640;2023-02-17T05:05:07;96655.97;;;5.20;71.52
31775;BME280;66189;49.000;11.640;2023-02-17T05:07:08;96646.59;;;5.31;71.00
31775;BME280;66189;49.000;11.640;2023-02-17T05:09:08;96646.28;;;5.32;70.58
31775;BME280;66189;49.000;11.640;2023-02-17T05:11:09;96645.66;;;5.27;71.03
31775;BME280;66189;49.000;11.640;2023-02-17T05:13:09;96631.56;;;5.35;70.54
31775;BME280;66189;49.000;11.640;2023-02-17T05:15:10;96641.16;;;5.36;70.40
31775;BME280;66189;49.000;11.640;2023-02-17T05:17:11;96645.38;;;5.37;70.31
31775;BME280;66189;49.000;11.640;2023-02-17T05:19:11;96637.56;;;5.41;70.23
31775;BME280;66189;49.000;11.640;2023-02-17T05:21:12;96640.22;;;5.41;69.89
31775;BME280;66189;49.000;11.640;2023-02-17T05:23:12;96644.13;;;5.43;69.91
31775;BME280;66189;49.000;11.640;2023-02-17T05:25:13;96644.34;;;5.47;69.46
31775;BME280;66189;49.000;11.640;2023-02-17T05:27:13;96639.19;;;5.59;68.83
31775;BME280;66189;49.000;11.640;2023-02-17T05:29:13;96631.97;;;5.60;68.56
31775;BME280;66189;49.000;11.640;2023-02-17T05:31:14;96640.13;;;5.55;69.16
31775;BME280;66189;49.000;11.640;2023-02-17T05:33:15;96641.09;;;5.59;68.96
31775;BME280;66189;49.000;11.640;2023-02-17T05:35:15;96643.75;;;5.59;68.72
31775;BME280;66189;49.000;11.640;2023-02-17T05:37:16;96639.41;;;5.72;68.15
31775;BME280;66189;49.000;11.640;2023-02-17T05:39:16;96638.63;;;5.71;67.89
31775;BME280;66189;49.000;11.640;2023-02-17T05:41:17;96643.34;;;5.74;67.73
31775;BME280;66189;49.000;11.640;2023-02-17T05:43:18;96645.22;;;5.74;67.53
31775;BME280;66189;49.000;11.640;2023-02-17T05:45:19;96639.41;;;5.72;67.69
31775;BME280;66189;49.000;11.640;2023-02-17T05:47:19;96651.81;;;5.76;67.54
31775;BME280;66189;49.000;11.640;2023-02-17T05:49:19;96643.50;;;5.78;67.55
31775;BME280;66189;49.000;11.640;2023-02-17T05:51:20;96641.31;;;5.80;66.91
31775;BME280;66189;49.000;11.640;2023-02-17T05:53:20;96655.16;;;5.82;67.15
31775;BME280;66189;49.000;11.640;2023-02-17T05:55:20;96646.84;;;5.83;66.83
31775;BME280;66189;49.000;11.640;2023-02-17T05:57:21;96651.25;;;5.88;66.44
31775;BME280;66189;49.000;11.640;2023-02-17T05:59:22;96648.09;;;5.86;66.92
31775;BME280;66189;49.000;11.640;2023-02-17T06:01:23;96644.00;;;5.88;66.59
31775;BME280;66189;49.000;11.640;2023-02-17T06:03:23;96639.75;;;5.87;66.41
31775;BME280;66189;49.000;11.640;2023-02-17T06:05:24;96638.16;;;5.78;66.98
31775;BME280;66189;49.000;11.640;2023-02-17T06:07:24;96641.63;;;5.78;66.97
31775;BME280;66189;49.000;11.640;2023-02-17T06:09:24;96636.47;;;5.82;66.64
31775;BME280;66189;49.000;11.640;2023-02-17T06:11:25;96638.63;;;5.80;66.84
31775;BME280;66189;49.000;11.640;2023-02-17T06:13:25;96637.41;;;5.86;66.41
31775;BME280;66189;49.000;11.640;2023-02-17T06:15:26;96631.75;;;5.79;66.48
31775;BME280;66189;49.000;11.640;2023-02-17T06:17:26;96636.31;;;5.87;66.43
31775;BME280;66189;49.000;11.640;2023-02-17T06:19:27;96635.97;;;5.80;67.04
31775;BME280;66189;49.000;11.640;2023-02-17T06:21:27;96639.16;;;5.91;66.12
31775;BME280;66189;49.000;11.640;2023-02-17T06:23:28;96640.09;;;5.95;66.06
31775;BME280;66189;49.000;11.640;2023-02-17T06:25:28;96633.53;;;5.92;66.21
31775;BME280;66189;49.000;11.640;2023-02-17T06:27:29;96636.81;;;5.89;66.64
31775;BME280;66189;49.000;11.640;2023-02-17T06:29:29;96632.41;;;5.93;66.33
31775;BME280;66189;49.000;11.640;2023-02-17T06:31:29;96639.16;;;5.91;66.33
31775;BME280;66189;49.000;11.640;2023-02-17T06:33:30;96634.28;;;5.93;66.13
31775;BME280;66189;49.000;11.640;2023-02-17T06:35:31;96632.72;;;5.92;66.38
31775;BME280;66189;49.000;11.640;2023-02-17T06:37:31;96640.09;;;5.95;66.01
31775;BME280;66189;49.000;11.640;2023-02-17T06:39:31;96641.03;;;5.90;66.47
31775;BME280;66189;49.000;11.640;2023-02-17T06:41:33;96651.31;;;5.97;65.99
31775;BME280;66189;49.000;11.640;2023-02-17T06:43:33;96649.41;;;5.97;66.13
31775;BME280;66189;49.000;11.640;2023-02-17T06:45:34;96649.97;;;5.85;66.77
31775;BME280;66189;49.000;11.640;2023-02-17T06:47:34;96655.00;;;5.87;66.68
31775;BME280;66189;49.000;11.640;2023-02-17T06:49:34;96658.94;;;5.90;66.66
31775;BME280;66189;49.000;11.640;2023-02-17T06:51:35;96662.41;;;5.90;66.33
31775;BME280;66189;49.000;11.640;2023-02-17T06:53:35;96665.25;;;5.94;66.51
31775;BME280;66189;49.000;11.640;2023-02-17T06:55:36;96666.09;;;6.03;66.18
31775;BME280;66189;49.000;11.640;2023-02-17T06:57:38;96663.44;;;6.03;66.38
31775;BME280;66189;49.000;11.640;2023-02-17T06:59:38;96655.66;;;5.93;67.04
31775;BME280;66189;49.000;11.640;2023-02-17T07:01:38;96658.41;;;6.01;66.41
31775;BME280;66189;49.000;11.640;2023-02-17T07:03:39;96659.47;;;6.00;66.86
31775;BME280;66189;49.000;11.640;2023-02-17T07:05:39;96662.28;;;5.95;66.94
31775;BME280;66189;49.000;11.640;2023-02-17T07:07:40;96663.81;;;5.96;66.99
31775;BME280;66189;49.000;11.640;2023-02-17T07:09:40;96665.59;;;6.01;66.82
31775;BME280;66189;49.000;11.640;2023-02-17T07:11:40;96659.31;;;6.05;66.53
31775;BME280;66189;49.000;11.640;2023-02-17T07:13:43;96663.28;;;6.08;66.51
31775;BME280;66189;49.000;11.640;2023-02-17T07:15:44;96666.56;;;6.05;66.88
31775;BME280;66189;49.000;11.640;2023-02-17T07:17:44;96666.09;;;6.12;66.71
31775;BME280;66189;49.000;11.640;2023-02-17T07:19:44;96667.38;;;6.14;66.62
31775;BME280;66189;49.000;11.640;2023-02-17T07:21:45;96675.72;;;6.21;66.50
31775;BME280;66189;49.000;11.640;2023-02-17T07:23:45;96671.78;;;6.19;66.60
31775;BME280;66189;49.000;11.640;2023-02-17T07:25:45;96666.31;;;6.24;66.58
31775;BME280;66189;49.000;11.640;2023-02-17T07:27:46;96660.66;;;6.26;66.22
31775;BME280;66189;49.000;11.640;2023-02-17T07:29:46;96663.94;;;6.31;66.22
31775;BME280;66189;49.000;11.640;2023-02-17T07:31:47;96666.63;;;6.31;66.59
31775;BME280;66189;49.000;11.640;2023-02-17T07:33:47;96660.66;;;6.43;65.55
31775;BME280;66189;49.000;11.640;2023-02-17T07:35:49;96662.06;;;6.40;66.20
31775;BME280;66189;49.000;11.640;2023-02-17T07:37:50;96655.63;;;6.33;66.72
31775;BME280;66189;49.000;11.640;2023-02-17T07:39:50;96657.84;;;6.48;65.50
31775;BME280;66189;49.000;11.640;2023-02-17T07:41:51;96663.81;;;6.54;65.68
31775;BME280;66189;49.000;11.640;2023-02-17T07:43:52;96665.06;;;6.48;66.12
31775;BME280;66189;49.000;11.640;2023-02-17T07:45:53;96672.03;;;6.57;65.84
31775;BME280;66189;49.000;11.640;2023-02-17T07:47:54;96665.09;;;6.56;66.02
31775;BME280;66189;49.000;11.640;2023-02-17T07:49:54;96666.97;;;6.65;65.63
31775;BME280;66189;49.000;11.640;2023-02-17T07:51:55;96676.25;;;6.67;65.42
31775;BME280;66189;49.000;11.640;2023-02-17T07:53:55;96669.34;;;6.66;66.23
31775;BME280;66189;49.000;11.640;2023-02-17T07:55:55;96670.75;;;6.81;65.40
31775;BME280;66189;49.000;11.640;2023-02-17T07:57:56;96677.38;;;6.84;65.33
31775;BME280;66189;49.000;11.640;2023-02-17T07:59:56;96679.72;;;6.85;65.62
31775;BME280;66189;49.000;11.640;2023-02-17T08:01:56;96681.94;;;6.83;66.09
31775;BME280;66189;49.000;11.640;2023-02-17T08:03:57;96675.34;;;6.89;65.17
31775;BME280;66189;49.000;11.640;2023-02-17T08:05:57;96669.50;;;6.87;65.39
31775;BME280;66189;49.000;11.640;2023-02-17T08:07:58;96667.16;;;6.94;65.71
31775;BME280;66189;49.000;11.640;2023-02-17T08:10:17;96677.38;;;6.92;65.56
31775;BME280;66189;49.000;11.640;2023-02-17T08:12:35;96666.38;;;6.94;65.47
31775;BME280;66189;49.000;11.640;2023-02-17T08:15:09;96672.94;;;6.97;65.42
31775;BME280;66189;49.000;11.640;2023-02-17T08:17:10;96675.47;;;7.02;65.27
31775;BME280;66189;49.000;11.640;2023-02-17T08:19:10;96664.47;;;7.03;65.19
31775;BME280;66189;49.000;11.640;2023-02-17T08:21:10;96672.19;;;7.05;65.44
31775;BME280;66189;49.000;11.640;2023-02-17T08:23:11;96674.69;;;7.10;65.31
31775;BME280;66189;49.000;11.640;2023-02-17T08:25:12;96665.25;;;7.04;65.66
31775;BME280;66189;49.000;11.640;2023-02-17T08:27:13;96671.06;;;7.06;65.20
31775;BME280;66189;49.000;11.640;2023-02-17T08:29:15;96664.75;;;7.10;65.54
31775;BME280;66189;49.000;11.640;2023-02-17T08:31:19;96665.06;;;7.26;64.81
31775;BME280;66189;49.000;11.640;2023-02-17T08:33:19;96662.38;;;7.18;65.33
31775;BME280;66189;49.000;11.640;2023-02-17T08:35:20;96652.13;;;7.28;64.70
31775;BME280;66189;49.000;11.640;2023-02-17T08:37:21;96652.31;;;7.32;64.53
31775;BME280;66189;49.000;11.640;2023-02-17T08:39:22;96671.69;;;7.29;64.68
31775;BME280;66189;49.000;11.640;2023-02-17T08:41:28;96669.91;;;7.42;64.42
31775;BME280;66189;49.000;11.640;2023-02-17T08:43:29;96675.25;;;7.42;64.51
31775;BME280;66189;49.000;11.640;2023-02-17T08:45:30;96675.09;;;7.47;64.91
31775;BME280;66189;49.000;11.640;2023-02-17T08:47:30;96668.31;;;7.50;65.25
31775;BME280;66189;49.000;11.640;2023-02-17T08:49:31;96674.28;;;7.55;65.46
31775;BME280;66189;49.000;11.640;2023-02-17T08:51:32;96672.34;;;7.64;65.23
31775;BME280;66189;49.000;11.640;2023-02-17T08:53:33;96679.88;;;7.80;64.94
31775;BME280;66189;49.000;11.640;2023-02-17T08:55:34;96673.88;;;7.83;64.88
31775;BME280;66189;49.000;11.640;2023-02-17T08:57:34;96667.88;;;7.86;65.04
31775;BME280;66189;49.000;11.640;2023-02-17T08:59:35;96658.72;;;7.87;65.44
31775;BME280;66189;49.000;11.640;2023-02-17T09:01:36;96662.03;;;7.93;65.38
31775;BME280;66189;49.000;11.640;2023-02-17T09:03:36;96674.13;;;7.99;65.52
31775;BME280;66189;49.000;11.640;2023-02-17T09:05:37;96669.88;;;7.98;65.73
31775;BME280;66189;49.000;11.640;2023-02-17T09:07:37;96688.50;;;7.94;65.58
31775;BME280;66189;49.000;11.640;2023-02-17T09:09:39;96678.19;;;8.05;66.10
31775;BME280;66189;49.000;11.640;2023-02-17T09:11:39;96669.63;;;8.12;66.43
31775;BME280;66189;49.000;11.640;2023-02-17T09:13:40;96675.97;;;8.37;65.50
31775;BME280;66189;49.000;11.640;2023-02-17T09:15:40;96666.59;;;8.52;64.93
31775;BME280;66189;49.000;11.640;2023-02-17T09:17:41;96685.72;;;8.50;65.37
31775;BME280;66189;49.000;11.640;2023-02-17T09:19:41;96662.06;;;8.44;65.39
31775;BME280;66189;49.000;11.640;2023-02-17T09:21:42;96661.56;;;8.50;65.37
31775;BME280;66189;49.000;11.640;2023-02-17T09:23:42;96661.38;;;8.56;65.51
31775;BME280;66189;49.000;11.640;2023-02-17T09:25:43;96662.69;;;8.70;65.05
31775;BME280;66189;49.000;11.640;2023-02-17T09:27:44;96661.75;;;8.87;65.04
31775;BME280;66189;49.000;11.640;2023-02-17T09:29:44;96662.09;;;8.86;65.14
31775;BME280;66189;49.000;11.640;2023-02-17T09:31:44;96658.75;;;8.89;65.29
31775;BME280;66189;49.000;11.640;2023-02-17T09:33:45;96663.47;;;8.92;65.57
31775;BME280;66189;49.000;11.640;2023-02-17T09:35:47;96663.00;;;8.90;66.22
31775;BME280;66189;49.000;11.640;2023-02-17T09:37:48;96661.75;;;8.87;66.02
31775;BME280;66189;49.000;11.640;2023-02-17T09:39:49;96674.41;;;8.87;65.91
31775;BME280;66189;49.000;11.640;2023-02-17T09:41:49;96658.63;;;8.85;65.93
31775;BME280;66189;49.000;11.640;2023-02-17T09:43:52;96670.91;;;8.86;66.70
31775;BME280;66189;49.000;11.640;2023-02-17T09:45:57;96683.88;;;8.84;66.44
31775;BME280;66189;49.000;11.640;2023-02-17T09:48:03;96668.81;;;8.92;65.81
31775;BME280;66189;49.000;11.640;2023-02-17T09:50:20;96681.66;;;8.86;66.11
31775;BME280;66189;49.000;11.640;2023-02-17T09:56:34;96674.31;;;8.96;65.65
31775;BME280;66189;49.000;11.640;2023-02-17T09:58:39;96677.47;;;8.98;65.68
31775;BME280;66189;49.000;11.640;2023-02-17T10:00:45;96682.69;;;8.94;65.70
31775;BME280;66189;49.000;11.640;2023-02-17T10:02:48;96681.59;;;8.95;66.07
31775;BME280;66189;49.000;11.640;2023-02-17T10:04:56;96671.06;;;8.90;65.58
31775;BME280;66189;49.000;11.640;2023-02-17T10:07:06;96671.19;;;8.94;65.95
31775;BME280;66189;49.000;11.640;2023-02-17T10:09:14;96673.88;;;8.94;65.53
31775;BME280;66189;49.000;11.640;2023-02-17T10:11:30;96673.41;;;8.92;65.39
31775;BME280;66189;49.000;11.640;2023-02-17T10:13:33;96684.16;;;8.92;65.37
31775;BME280;66189;49.000;11.640;2023-02-17T10:15:38;96681.78;;;8.90;65.38
31775;BME280;66189;49.000;11.640;2023-02-17T10:17:46;96684.16;;;8.92;65.34
31775;BME280;66189;49.000;11.640;2023-02-17T10:20:00;96673.28;;;8.88;65.61
31775;BME280;66189;49.000;11.640;2023-02-17T10:22:04;96692.66;;;8.94;65.66
31775;BME280;66189;49.000;11.640;2023-02-17T10:24:06;96676.09;;;8.92;65.54
31775;BME280;66189;49.000;11.640;2023-02-17T10:28:51;96685.31;;;9.03;65.00
31775;BME280;66189;49.000;11.640;2023-02-17T10:31:00;96696.38;;;9.01;65.43
31775;BME280;66189;49.000;11.640;2023-02-17T10:33:34;96694.81;;;9.00;65.98
31775;BME280;66189;49.000;11.640;2023-02-17T10:35:47;96679.59;;;9.04;65.66
31775;BME280;66189;49.000;11.640;2023-02-17T10:38:00;96698.41;;;9.04;65.67
31775;BME280;66189;49.000;11.640;2023-02-17T10:40:26;96681.63;;;9.07;65.38
31775;BME280;66189;49.000;11.640;2023-02-17T10:42:37;96689.94;;;9.15;65.23
31775;BME280;66189;49.000;11.640;2023-02-17T10:44:38;96684.59;;;9.15;65.26
31775;BME280;66189;49.000;11.640;2023-02-17T10:46:40;96676.78;;;9.22;65.65
31775;BME280;66189;49.000;11.640;2023-02-17T10:48:52;96700.03;;;9.18;65.98
31775;BME280;66189;49.000;11.640;2023-02-17T10:50:58;96678.56;;;9.18;65.69
31775;BME280;66189;49.000;11.640;2023-02-17T10:52:58;96666.38;;;9.20;65.73
31775;BME280;66189;49.000;11.640;2023-02-17T10:55:03;96675.78;;;9.27;65.74
31775;BME280;66189;49.000;11.640;2023-02-17T10:57:07;96671.44;;;9.34;64.99
31775;BME280;66189;49.000;11.640;2023-02-17T11:01:16;96664.09;;;9.43;64.49
31775;BME280;66189;49.000;11.640;2023-02-17T11:03:22;96661.97;;;9.37;65.52
31775;BME280;66189;49.000;11.640;2023-02-17T11:05:26;96665.84;;;9.39;64.95
31775;BME280;66189;49.000;11.640;2023-02-17T11:07:35;96667.31;;;9.37;65.74
31775;BME280;66189;49.000;11.640;2023-02-17T11:09:43;96662.84;;;9.41;65.52
31775;BME280;66189;49.000;11.640;2023-02-17T11:11:51;96655.25;;;9.43;65.37
31775;BME280;66189;49.000;11.640;2023-02-17T11:16:06;96643.97;;;9.50;65.48
31775;BME280;66189;49.000;11.640;2023-02-17T11:18:16;96638.59;;;9.50;65.56
31775;BME280;66189;49.000;11.640;2023-02-17T11:23:06;96630.88;;;9.60;65.63
31775;BME280;66189;49.000;11.640;2023-02-17T11:25:24;96625.97;;;9.63;65.63
31775;BME280;66189;49.000;11.640;2023-02-17T11:27:25;96617.34;;;9.69;65.87
31775;BME280;66189;49.000;11.640;2023-02-17T11:29:26;96625.41;;;9.69;65.84
31775;BME280;66189;49.000;11.640;2023-02-17T11:31:27;96626.41;;;9.65;66.40